x

Portlock Bank- 76nm Ene Of Kodiak, Ak (46080) Wave Buoy

4:50am - Thu 31st Jul 2014 All times are AKDT. -8 hours from GMT.

  • Sig Wave height 3.9ft
  • Peak Period 5s
  • Average Period 4s
  • Wind
    13mph, 16mph gusts
  • Sea Temp 58°f
  • Air Temp 57°f
  • Sea Pressure 1025mb
  • Portlock Bank- 76nm Ene Of Kodiak, Ak
  • Portlock Bank- 76nm Ene Of Kodiak, Ak

More Historic Weather Station data

Upgrade to MSW Pro to gain access to the past 30 days of data for over 8000 Wavebouys and Weather Stations around the globe.

Join Pro

Comparision Forecast

View Surf forecast
   
Thu 07/31 4:50am 4ft 5s 4s 13 16 mph 1025mb 58f 57f
3:50am 4ft 6s 4s 18 20 mph 1024.6mb 58f 58f
2:50am 4ft 6s 4s 13 18 mph 1024.8mb 58f 57f
1:50am 3.5ft 6s 4s 13 16 mph 1024.9mb 58f 58f
12:50am 3.5ft 6s 4s 13 16 mph 1024.7mb 58f 58f
Wed 07/30 11:50pm 4.5ft 6s 5s 11 16 mph 1024.3mb 58f 58f
10:50pm 4.5ft 6s 4s 13
mph
1023.9mb 58f 58f
9:50pm 4.5ft 7s 5s 11 13 mph 1023.4mb 58f 58f
8:50pm 4.5ft 6s 5s 11 13 mph 1023mb 58f 58f
7:50pm 4ft 7s 5s 13 16 mph 1022.6mb 58f 59f
6:50pm 4ft 7s 5s 13 18 mph 1022.3mb 58f 59f
5:50pm 3.5ft 7s 5s 13 16 mph 1021.9mb 58f 58f
4:50pm 4.5ft 8s 5s 13 16 mph 1021.4mb 58f 58f
3:50pm 4.5ft 7s 5s 13 18 mph 1020.8mb 58f 58f
2:50pm 5ft 6s 5s 18 20 mph 1020.4mb 59f 58f
1:50pm 5.5ft 6s 5s 20 25 mph 1019.6mb 58f 58f
12:50pm 5ft 6s 4s 22 27 mph 1019.3mb 57f 58f
11:50am 5ft 6s 4s 22 27 mph 1018.8mb 56f 57f
10:50am 5ft 6s 4s 22 27 mph 1018.3mb 57f 57f
9:50am 4.5ft 6s 4s 20 22 mph 1017.9mb 57f 57f
8:50am 4ft 6s 4s 20 22 mph 1017.6mb 57f 57f
7:50am 3.5ft 6s 4s 16 18 mph 1017.2mb 57f 57f
6:50am 3ft 5s 4s 18 20 mph 1017mb 56f 57f
5:50am 2.5ft 5s 4s 16 18 mph 1016.6mb 56f 57f
4:50am 2ft 5s 4s 13 16 mph 1016.5mb 57f 57f
3:50am 2ft 5s 4s 9 11 mph 1016.2mb 58f 57f
2:50am 2ft 5s 4s 9
mph
1016mb 58f 57f
1:50am 2.5ft 15s 5s 7 9 mph 1015.9mb 57f 57f
12:50am 2ft 5s 4s 7 9 mph 1015.8mb 57f 57f
Tue 07/29 11:50pm 2ft 14s 4s 7 9 mph 1015.4mb 57f 57f
10:50pm 2ft 14s 4s 9 11 mph 1015.4mb 58f 57f
9:50pm 2ft 3s 3s 9 11 mph 1015.1mb 58f 57f
8:50pm 2ft 15s 3s 9 11 mph 1014.8mb 58f 58f
7:50pm 1.6ft 5s 3s 11 13 mph 1014.6mb 57f 58f
6:50pm 1.6ft 6s 3s 11 13 mph 1014.5mb 58f 58f
5:50pm 1.6ft 3s 3s 9 11 mph 1014.2mb 58f 58f
4:50pm 1.3ft 3s 4s 11
mph
1014mb 58f 58f
3:50pm 1.3ft 3s 3s 9 11 mph 1013.8mb 57f 57f
2:50pm 1.6ft 3s 3s 9 11 mph 1013.5mb 57f 57f
1:50pm 1.6ft 5s 4s 11 13 mph 1013.4mb 57f 57f
12:50pm 1.6ft 4s 4s 11 13 mph 1013.1mb 56f 57f
11:50am 2ft 3s 3s 13 16 mph 1012.9mb 56f 57f
10:50am 2ft 3s 3s 13 16 mph 1012.7mb 56f 57f
9:50am 2ft 5s 3s 13 16 mph 1012.5mb 56f 56f
8:50am 2.5ft 5s 3s 13 16 mph 1012.4mb 56f 55f
7:50am 2.5ft 5s 3s 13 16 mph 1012.3mb 56f 55f
6:50am 2ft 6s 3s 13 16 mph 1012.4mb 56f 55f
5:50am 2ft 6s 4s 13 16 mph 1012.4mb 57f 54f
4:50am 1.6ft 5s 4s 11 13 mph 1012.5mb 58f 55f
3:50am 1.6ft 6s 5s 7 9 mph 1012.5mb 58f 55f
2:50am 2ft 6s 5s 4 7 mph 1012.9mb 58f 55f
1:50am 2.5ft 5s 5s 2
mph
1013.3mb 58f 55f
12:50am 2ft 6s 5s 2
mph
1013.7mb 57f 55f
Mon 07/28 11:50pm 2.5ft 6s 5s 2 4 mph 1014mb 57f 56f
10:50pm 2.5ft 6s 5s  -  2 mph 1014.2mb 57f 56f
9:50pm 2.5ft 5s 5s 2 4 mph 1014.3mb 57f 56f
8:50pm 2.5ft 6s 4s 7
mph
1015mb 56f 56f
7:50pm 3.5ft 6s 4s 2
mph
1015.1mb 57f 57f
6:50pm 3.5ft 6s 5s 2 4 mph 1015.5mb 57f 57f
5:50pm 3ft 6s 5s 4 7 mph 1015.8mb 57f 57f
4:50pm 3.5ft 6s 5s 4 7 mph 1016.2mb 57f 58f
3:50pm 4ft 7s 5s 7
mph
1016.2mb 57f 58f
2:50pm 3.5ft 7s 5s 7
mph
1016.9mb 57f 57f
1:50pm 3.5ft 7s 5s 7 9 mph 1016.9mb 56f 57f
12:50pm 3.5ft 6s 5s 7 9 mph 1017.1mb 56f 57f
11:50am 4ft 6s 5s 9 11 mph 1017.2mb 55f 56f
10:50am 3.5ft 7s 5s 11 13 mph 1017.1mb 56f 56f
9:50am 4.5ft 7s 4s 16 18 mph 1017.1mb 56f 56f
8:50am 4.5ft 6s 4s 18 20 mph 1017mb 55f 56f
7:50am 5ft 7s 4s 16 18 mph 1016.8mb 55f 56f
6:50am 4.5ft 6s 4s 16 18 mph 1016.9mb 55f 56f
5:50am 4.5ft 6s 4s 16
mph
1016.8mb 54f 56f
4:50am 4.5ft 6s 4s 11 13 mph 1016.8mb 56f 56f
3:50am 4.5ft 6s 5s 13 16 mph 1016.6mb 57f 56f
2:50am 4.5ft 6s 5s 16 18 mph 1016.6mb 56f 56f
1:50am 3.5ft 7s 5s 13 18 mph 1016.6mb 56f 57f
12:50am 3ft 7s 5s 11 13 mph 1016.6mb 57f 57f
Sun 07/27 11:50pm 3ft 6s 5s 9 11 mph 1016.5mb 56f 57f
10:50pm 3.5ft 6s 5s 11 13 mph 1016.2mb 55f 57f
9:50pm 3.5ft 7s 5s 7 9 mph 1015.9mb 55f 58f
8:50pm 3.5ft 7s 5s 7
mph
1015.5mb 55f 58f
7:50pm 3.5ft 5s 5s 4
mph
1015mb 56f 58f
6:50pm 3.5ft 7s 5s 4
mph
1014.7mb 56f 58f
5:50pm 3.5ft 8s 5s 4
mph
1014.4mb 56f 58f
4:50pm 4.5ft 7s 5s 4 7 mph 1014mb 55f 57f
3:50pm 4.5ft 7s 5s 7
mph
1013.7mb 55f 56f
2:50pm 4.5ft 8s 5s 9
mph
1013.1mb 54f 56f